sensor_id;sensor_type;location;lat;lon;timestamp;P1;durP1;ratioP1;P2;durP2;ratioP2
70866;SDS011;58487;53.474;49.470;2023-08-06T00:00:39;15.90;;;8.93;;
70866;SDS011;58487;53.474;49.470;2023-08-06T00:03:05;13.10;;;8.93;;
70866;SDS011;58487;53.474;49.470;2023-08-06T00:05:31;12.82;;;8.80;;
70866;SDS011;58487;53.474;49.470;2023-08-06T00:07:57;14.05;;;8.95;;
70866;SDS011;58487;53.474;49.470;2023-08-06T00:10:23;12.85;;;8.85;;
70866;SDS011;58487;53.474;49.470;2023-08-06T00:12:49;13.07;;;9.30;;
70866;SDS011;58487;53.474;49.470;2023-08-06T00:15:15;12.60;;;8.93;;
70866;SDS011;58487;53.474;49.470;2023-08-06T00:17:41;13.23;;;8.75;;
70866;SDS011;58487;53.474;49.470;2023-08-06T00:20:07;13.25;;;8.57;;
70866;SDS011;58487;53.474;49.470;2023-08-06T00:22:34;12.10;;;8.85;;
70866;SDS011;58487;53.474;49.470;2023-08-06T00:25:01;11.85;;;8.80;;
70866;SDS011;58487;53.474;49.470;2023-08-06T00:27:28;15.07;;;10.07;;
70866;SDS011;58487;53.474;49.470;2023-08-06T00:29:54;14.60;;;9.95;;
70866;SDS011;58487;53.474;49.470;2023-08-06T00:32:20;13.93;;;9.50;;
70866;SDS011;58487;53.474;49.470;2023-08-06T00:34:51;15.57;;;9.73;;
70866;SDS011;58487;53.474;49.470;2023-08-06T00:37:17;14.43;;;10.03;;
70866;SDS011;58487;53.474;49.470;2023-08-06T00:39:43;17.83;;;11.37;;
70866;SDS011;58487;53.474;49.470;2023-08-06T00:42:13;18.10;;;10.38;;
70866;SDS011;58487;53.474;49.470;2023-08-06T00:44:39;15.98;;;10.43;;
70866;SDS011;58487;53.474;49.470;2023-08-06T00:47:06;13.63;;;10.32;;
70866;SDS011;58487;53.474;49.470;2023-08-06T00:49:33;17.95;;;10.60;;
70866;SDS011;58487;53.474;49.470;2023-08-06T00:52:00;15.17;;;10.70;;
70866;SDS011;58487;53.474;49.470;2023-08-06T00:54:26;16.98;;;10.35;;
70866;SDS011;58487;53.474;49.470;2023-08-06T00:56:53;15.80;;;11.27;;
70866;SDS011;58487;53.474;49.470;2023-08-06T00:59:19;19.65;;;10.95;;
70866;SDS011;58487;53.474;49.470;2023-08-06T01:01:45;16.38;;;10.73;;
70866;SDS011;58487;53.474;49.470;2023-08-06T01:04:11;19.87;;;11.70;;
70866;SDS011;58487;53.474;49.470;2023-08-06T01:12:18;17.50;;;11.52;;
70866;SDS011;58487;53.474;49.470;2023-08-06T01:15:11;16.48;;;10.95;;
70866;SDS011;58487;53.474;49.470;2023-08-06T01:17:45;17.93;;;11.80;;
70866;SDS011;58487;53.474;49.470;2023-08-06T01:20:11;18.98;;;11.82;;
70866;SDS011;58487;53.474;49.470;2023-08-06T01:22:37;21.27;;;11.68;;
70866;SDS011;58487;53.474;49.470;2023-08-06T01:25:03;20.60;;;11.95;;
70866;SDS011;58487;53.474;49.470;2023-08-06T01:27:30;18.40;;;11.00;;
70866;SDS011;58487;53.474;49.470;2023-08-06T01:30:11;17.97;;;11.07;;
70866;SDS011;58487;53.474;49.470;2023-08-06T01:32:44;18.33;;;12.48;;
70866;SDS011;58487;53.474;49.470;2023-08-06T01:35:19;19.35;;;11.98;;
70866;SDS011;58487;53.474;49.470;2023-08-06T01:37:48;18.23;;;12.20;;
70866;SDS011;58487;53.474;49.470;2023-08-06T01:40:14;18.48;;;11.65;;
70866;SDS011;58487;53.474;49.470;2023-08-06T01:42:40;21.87;;;11.70;;
70866;SDS011;58487;53.474;49.470;2023-08-06T01:45:07;23.80;;;12.20;;
70866;SDS011;58487;53.474;49.470;2023-08-06T01:47:34;21.13;;;11.30;;
70866;SDS011;58487;53.474;49.470;2023-08-06T01:50:00;17.38;;;12.05;;
70866;SDS011;58487;53.474;49.470;2023-08-06T01:52:26;21.27;;;11.83;;
70866;SDS011;58487;53.474;49.470;2023-08-06T01:54:52;19.60;;;11.30;;
70866;SDS011;58487;53.474;49.470;2023-08-06T01:57:18;21.13;;;11.50;;
70866;SDS011;58487;53.474;49.470;2023-08-06T01:59:44;20.10;;;11.07;;
70866;SDS011;58487;53.474;49.470;2023-08-06T02:02:10;19.50;;;11.07;;
70866;SDS011;58487;53.474;49.470;2023-08-06T02:04:36;17.90;;;10.93;;
70866;SDS011;58487;53.474;49.470;2023-08-06T02:07:02;17.45;;;10.50;;
70866;SDS011;58487;53.474;49.470;2023-08-06T02:09:28;16.85;;;10.85;;
70866;SDS011;58487;53.474;49.470;2023-08-06T02:11:54;17.17;;;10.48;;
70866;SDS011;58487;53.474;49.470;2023-08-06T02:14:20;14.57;;;10.80;;
70866;SDS011;58487;53.474;49.470;2023-08-06T02:16:46;16.07;;;10.57;;
70866;SDS011;58487;53.474;49.470;2023-08-06T02:19:12;16.90;;;11.10;;
70866;SDS011;58487;53.474;49.470;2023-08-06T02:21:38;17.48;;;10.57;;
70866;SDS011;58487;53.474;49.470;2023-08-06T02:24:04;19.45;;;10.15;;
70866;SDS011;58487;53.474;49.470;2023-08-06T02:26:30;16.80;;;10.77;;
70866;SDS011;58487;53.474;49.470;2023-08-06T02:28:56;14.77;;;10.27;;
70866;SDS011;58487;53.474;49.470;2023-08-06T02:31:22;20.13;;;13.10;;
70866;SDS011;58487;53.474;49.470;2023-08-06T02:33:53;18.27;;;10.65;;
70866;SDS011;58487;53.474;49.470;2023-08-06T02:36:19;15.70;;;9.80;;
70866;SDS011;58487;53.474;49.470;2023-08-06T02:38:45;15.70;;;10.43;;
70866;SDS011;58487;53.474;49.470;2023-08-06T02:41:11;19.97;;;11.07;;
70866;SDS011;58487;53.474;49.470;2023-08-06T02:43:37;15.60;;;9.48;;
70866;SDS011;58487;53.474;49.470;2023-08-06T02:46:03;12.85;;;9.07;;
70866;SDS011;58487;53.474;49.470;2023-08-06T02:48:29;14.40;;;10.50;;
70866;SDS011;58487;53.474;49.470;2023-08-06T02:50:58;14.90;;;9.37;;
70866;SDS011;58487;53.474;49.470;2023-08-06T02:53:27;14.15;;;9.73;;
70866;SDS011;58487;53.474;49.470;2023-08-06T02:55:53;16.95;;;10.98;;
70866;SDS011;58487;53.474;49.470;2023-08-06T02:58:20;17.80;;;11.25;;
70866;SDS011;58487;53.474;49.470;2023-08-06T03:00:59;16.67;;;10.37;;
70866;SDS011;58487;53.474;49.470;2023-08-06T03:03:32;17.10;;;10.02;;
70866;SDS011;58487;53.474;49.470;2023-08-06T03:05:58;16.85;;;10.18;;
70866;SDS011;58487;53.474;49.470;2023-08-06T03:08:25;22.15;;;10.48;;
70866;SDS011;58487;53.474;49.470;2023-08-06T03:10:51;18.40;;;11.02;;
70866;SDS011;58487;53.474;49.470;2023-08-06T03:13:18;19.53;;;10.50;;
70866;SDS011;58487;53.474;49.470;2023-08-06T03:15:54;16.25;;;10.35;;
70866;SDS011;58487;53.474;49.470;2023-08-06T03:18:21;17.23;;;9.40;;
70866;SDS011;58487;53.474;49.470;2023-08-06T03:20:48;16.23;;;8.98;;
70866;SDS011;58487;53.474;49.470;2023-08-06T03:23:15;11.80;;;7.57;;
70866;SDS011;58487;53.474;49.470;2023-08-06T03:25:41;15.60;;;8.70;;
70866;SDS011;58487;53.474;49.470;2023-08-06T03:28:07;15.52;;;7.90;;
70866;SDS011;58487;53.474;49.470;2023-08-06T03:30:33;14.88;;;8.60;;
70866;SDS011;58487;53.474;49.470;2023-08-06T03:32:59;13.18;;;8.40;;
70866;SDS011;58487;53.474;49.470;2023-08-06T03:35:30;10.82;;;7.30;;
70866;SDS011;58487;53.474;49.470;2023-08-06T03:37:56;9.93;;;7.43;;
70866;SDS011;58487;53.474;49.470;2023-08-06T03:40:22;10.75;;;6.90;;
70866;SDS011;58487;53.474;49.470;2023-08-06T03:42:48;10.52;;;6.70;;
70866;SDS011;58487;53.474;49.470;2023-08-06T03:45:14;10.27;;;7.05;;
70866;SDS011;58487;53.474;49.470;2023-08-06T03:47:40;19.55;;;8.38;;
70866;SDS011;58487;53.474;49.470;2023-08-06T03:50:06;10.37;;;7.17;;
70866;SDS011;58487;53.474;49.470;2023-08-06T03:52:32;13.27;;;6.63;;
70866;SDS011;58487;53.474;49.470;2023-08-06T03:54:58;9.93;;;6.43;;
70866;SDS011;58487;53.474;49.470;2023-08-06T03:57:24;9.90;;;7.20;;
70866;SDS011;58487;53.474;49.470;2023-08-06T03:59:50;9.77;;;6.57;;
70866;SDS011;58487;53.474;49.470;2023-08-06T04:02:16;10.63;;;6.78;;
70866;SDS011;58487;53.474;49.470;2023-08-06T04:04:42;10.95;;;6.78;;
70866;SDS011;58487;53.474;49.470;2023-08-06T04:07:08;11.32;;;6.55;;
70866;SDS011;58487;53.474;49.470;2023-08-06T04:09:35;15.75;;;7.30;;
70866;SDS011;58487;53.474;49.470;2023-08-06T04:12:17;11.57;;;6.80;;
70866;SDS011;58487;53.474;49.470;2023-08-06T04:14:43;10.55;;;6.80;;
70866;SDS011;58487;53.474;49.470;2023-08-06T04:17:09;11.95;;;6.45;;
70866;SDS011;58487;53.474;49.470;2023-08-06T04:19:35;16.00;;;7.10;;
70866;SDS011;58487;53.474;49.470;2023-08-06T04:22:01;12.70;;;6.60;;
70866;SDS011;58487;53.474;49.470;2023-08-06T04:24:27;11.52;;;7.07;;
70866;SDS011;58487;53.474;49.470;2023-08-06T04:26:53;10.23;;;6.15;;
70866;SDS011;58487;53.474;49.470;2023-08-06T04:29:19;9.55;;;6.00;;
70866;SDS011;58487;53.474;49.470;2023-08-06T04:31:45;8.43;;;5.73;;
70866;SDS011;58487;53.474;49.470;2023-08-06T04:34:16;7.80;;;5.38;;
70866;SDS011;58487;53.474;49.470;2023-08-06T04:36:42;9.02;;;5.63;;
70866;SDS011;58487;53.474;49.470;2023-08-06T04:39:08;8.27;;;5.25;;
70866;SDS011;58487;53.474;49.470;2023-08-06T04:41:34;10.00;;;5.55;;
70866;SDS011;58487;53.474;49.470;2023-08-06T04:44:00;7.93;;;5.37;;
70866;SDS011;58487;53.474;49.470;2023-08-06T04:46:26;10.45;;;5.38;;
70866;SDS011;58487;53.474;49.470;2023-08-06T04:48:52;7.78;;;4.82;;
70866;SDS011;58487;53.474;49.470;2023-08-06T04:51:18;11.35;;;5.28;;
70866;SDS011;58487;53.474;49.470;2023-08-06T04:53:44;8.70;;;5.50;;
70866;SDS011;58487;53.474;49.470;2023-08-06T04:56:10;8.17;;;5.27;;
70866;SDS011;58487;53.474;49.470;2023-08-06T04:58:36;9.10;;;5.10;;
70866;SDS011;58487;53.474;49.470;2023-08-06T05:01:02;9.77;;;5.53;;
70866;SDS011;58487;53.474;49.470;2023-08-06T05:03:28;8.45;;;5.63;;
70866;SDS011;58487;53.474;49.470;2023-08-06T05:05:54;9.80;;;5.37;;
70866;SDS011;58487;53.474;49.470;2023-08-06T05:08:20;8.07;;;5.50;;
70866;SDS011;58487;53.474;49.470;2023-08-06T05:10:46;8.20;;;5.28;;
70866;SDS011;58487;53.474;49.470;2023-08-06T05:13:12;9.25;;;4.97;;
70866;SDS011;58487;53.474;49.470;2023-08-06T05:15:38;7.78;;;5.55;;
70866;SDS011;58487;53.474;49.470;2023-08-06T05:18:08;9.20;;;5.00;;
70866;SDS011;58487;53.474;49.470;2023-08-06T05:20:37;7.20;;;5.00;;
70866;SDS011;58487;53.474;49.470;2023-08-06T05:23:04;8.00;;;4.50;;
70866;SDS011;58487;53.474;49.470;2023-08-06T05:25:30;7.95;;;4.75;;
70866;SDS011;58487;53.474;49.470;2023-08-06T05:27:56;9.18;;;4.68;;
70866;SDS011;58487;53.474;49.470;2023-08-06T05:30:22;8.27;;;4.80;;
70866;SDS011;58487;53.474;49.470;2023-08-06T05:32:48;7.28;;;4.80;;
70866;SDS011;58487;53.474;49.470;2023-08-06T05:35:19;8.25;;;4.75;;
70866;SDS011;58487;53.474;49.470;2023-08-06T05:37:45;6.93;;;4.60;;
70866;SDS011;58487;53.474;49.470;2023-08-06T05:40:11;7.53;;;5.00;;
70866;SDS011;58487;53.474;49.470;2023-08-06T05:42:37;7.03;;;5.10;;
70866;SDS011;58487;53.474;49.470;2023-08-06T05:45:03;6.70;;;4.53;;
70866;SDS011;58487;53.474;49.470;2023-08-06T05:47:29;8.85;;;4.47;;
70866;SDS011;58487;53.474;49.470;2023-08-06T05:49:55;10.18;;;4.82;;
70866;SDS011;58487;53.474;49.470;2023-08-06T05:52:21;8.50;;;5.00;;
70866;SDS011;58487;53.474;49.470;2023-08-06T05:54:47;7.63;;;4.77;;
70866;SDS011;58487;53.474;49.470;2023-08-06T05:57:13;7.53;;;4.57;;
70866;SDS011;58487;53.474;49.470;2023-08-06T05:59:40;8.70;;;4.93;;
70866;SDS011;58487;53.474;49.470;2023-08-06T06:02:06;8.35;;;4.90;;
70866;SDS011;58487;53.474;49.470;2023-08-06T06:04:32;7.25;;;4.78;;
70866;SDS011;58487;53.474;49.470;2023-08-06T06:06:58;7.13;;;5.00;;
70866;SDS011;58487;53.474;49.470;2023-08-06T06:09:24;8.02;;;4.97;;
70866;SDS011;58487;53.474;49.470;2023-08-06T06:11:50;7.93;;;4.90;;
70866;SDS011;58487;53.474;49.470;2023-08-06T06:14:19;6.50;;;4.50;;
70866;SDS011;58487;53.474;49.470;2023-08-06T06:16:45;6.88;;;4.18;;
70866;SDS011;58487;53.474;49.470;2023-08-06T06:19:12;10.00;;;4.87;;
70866;SDS011;58487;53.474;49.470;2023-08-06T06:21:38;9.05;;;3.97;;
70866;SDS011;58487;53.474;49.470;2023-08-06T06:24:04;6.63;;;4.10;;
70866;SDS011;58487;53.474;49.470;2023-08-06T06:26:31;6.50;;;3.78;;
70866;SDS011;58487;53.474;49.470;2023-08-06T06:28:58;7.13;;;3.88;;
70866;SDS011;58487;53.474;49.470;2023-08-06T06:31:24;6.37;;;3.90;;
70866;SDS011;58487;53.474;49.470;2023-08-06T06:33:55;5.95;;;3.50;;
70866;SDS011;58487;53.474;49.470;2023-08-06T06:36:21;8.52;;;3.72;;
70866;SDS011;58487;53.474;49.470;2023-08-06T06:38:47;8.02;;;3.95;;
70866;SDS011;58487;53.474;49.470;2023-08-06T06:41:14;10.68;;;4.13;;
70866;SDS011;58487;53.474;49.470;2023-08-06T06:43:40;7.33;;;3.90;;
70866;SDS011;58487;53.474;49.470;2023-08-06T06:46:07;8.05;;;4.05;;
70866;SDS011;58487;53.474;49.470;2023-08-06T06:48:33;6.15;;;4.00;;
70866;SDS011;58487;53.474;49.470;2023-08-06T06:50:59;8.88;;;3.55;;
70866;SDS011;58487;53.474;49.470;2023-08-06T06:53:25;8.75;;;3.80;;
70866;SDS011;58487;53.474;49.470;2023-08-06T06:56:01;7.00;;;4.10;;
70866;SDS011;58487;53.474;49.470;2023-08-06T06:58:29;11.25;;;4.65;;
70866;SDS011;58487;53.474;49.470;2023-08-06T07:00:55;8.50;;;4.32;;
70866;SDS011;58487;53.474;49.470;2023-08-06T07:03:21;7.07;;;3.90;;
70866;SDS011;58487;53.474;49.470;2023-08-06T07:05:48;6.32;;;4.20;;
70866;SDS011;58487;53.474;49.470;2023-08-06T07:08:15;7.67;;;3.80;;
70866;SDS011;58487;53.474;49.470;2023-08-06T07:10:42;8.52;;;4.38;;
70866;SDS011;58487;53.474;49.470;2023-08-06T07:13:08;9.55;;;3.90;;
70866;SDS011;58487;53.474;49.470;2023-08-06T07:15:35;9.02;;;3.90;;
70866;SDS011;58487;53.474;49.470;2023-08-06T07:18:01;10.13;;;4.47;;
70866;SDS011;58487;53.474;49.470;2023-08-06T07:20:27;7.03;;;4.30;;
70866;SDS011;58487;53.474;49.470;2023-08-06T07:22:58;7.28;;;4.22;;
70866;SDS011;58487;53.474;49.470;2023-08-06T07:25:24;5.43;;;3.63;;
70866;SDS011;58487;53.474;49.470;2023-08-06T07:27:50;5.80;;;3.63;;
70866;SDS011;58487;53.474;49.470;2023-08-06T07:30:16;8.18;;;4.03;;
70866;SDS011;58487;53.474;49.470;2023-08-06T07:32:42;7.43;;;3.80;;
70866;SDS011;58487;53.474;49.470;2023-08-06T07:35:14;7.13;;;3.80;;
70866;SDS011;58487;53.474;49.470;2023-08-06T07:37:40;7.63;;;4.05;;
70866;SDS011;58487;53.474;49.470;2023-08-06T07:40:06;6.22;;;3.85;;
70866;SDS011;58487;53.474;49.470;2023-08-06T07:42:33;8.75;;;3.80;;
70866;SDS011;58487;53.474;49.470;2023-08-06T07:44:59;6.27;;;3.80;;
70866;SDS011;58487;53.474;49.470;2023-08-06T07:47:25;5.28;;;3.50;;
70866;SDS011;58487;53.474;49.470;2023-08-06T07:49:51;5.70;;;3.53;;
70866;SDS011;58487;53.474;49.470;2023-08-06T07:52:17;7.68;;;4.18;;
70866;SDS011;58487;53.474;49.470;2023-08-06T07:54:43;7.60;;;3.85;;
70866;SDS011;58487;53.474;49.470;2023-08-06T07:57:09;7.17;;;3.60;;
70866;SDS011;58487;53.474;49.470;2023-08-06T07:59:35;6.95;;;3.70;;
70866;SDS011;58487;53.474;49.470;2023-08-06T08:02:02;6.75;;;4.35;;
70866;SDS011;58487;53.474;49.470;2023-08-06T08:04:28;7.07;;;3.95;;
70866;SDS011;58487;53.474;49.470;2023-08-06T08:06:54;7.32;;;4.25;;
70866;SDS011;58487;53.474;49.470;2023-08-06T08:09:20;8.80;;;4.30;;
70866;SDS011;58487;53.474;49.470;2023-08-06T08:11:46;5.50;;;3.30;;
70866;SDS011;58487;53.474;49.470;2023-08-06T08:14:12;6.80;;;3.97;;
70866;SDS011;58487;53.474;49.470;2023-08-06T08:16:38;8.75;;;3.95;;
70866;SDS011;58487;53.474;49.470;2023-08-06T08:19:04;6.15;;;3.80;;
70866;SDS011;58487;53.474;49.470;2023-08-06T08:21:30;7.70;;;4.00;;
70866;SDS011;58487;53.474;49.470;2023-08-06T08:23:56;6.60;;;3.25;;
70866;SDS011;58487;53.474;49.470;2023-08-06T08:26:24;5.68;;;3.35;;
70866;SDS011;58487;53.474;49.470;2023-08-06T08:28:50;7.38;;;3.70;;
70866;SDS011;58487;53.474;49.470;2023-08-06T08:31:16;8.07;;;3.95;;
70866;SDS011;58487;53.474;49.470;2023-08-06T08:33:47;7.13;;;3.70;;
70866;SDS011;58487;53.474;49.470;2023-08-06T08:36:13;6.70;;;3.90;;
70866;SDS011;58487;53.474;49.470;2023-08-06T08:38:39;8.35;;;4.10;;
70866;SDS011;58487;53.474;49.470;2023-08-06T08:41:05;5.75;;;3.60;;
70866;SDS011;58487;53.474;49.470;2023-08-06T08:43:32;6.35;;;3.60;;
70866;SDS011;58487;53.474;49.470;2023-08-06T08:45:58;5.87;;;3.43;;
70866;SDS011;58487;53.474;49.470;2023-08-06T08:48:26;5.93;;;3.58;;
70866;SDS011;58487;53.474;49.470;2023-08-06T08:50:53;6.57;;;3.78;;
70866;SDS011;58487;53.474;49.470;2023-08-06T08:53:19;6.53;;;3.50;;
70866;SDS011;58487;53.474;49.470;2023-08-06T08:55:47;9.90;;;4.40;;
70866;SDS011;58487;53.474;49.470;2023-08-06T08:58:15;5.27;;;3.57;;
70866;SDS011;58487;53.474;49.470;2023-08-06T09:00:41;4.72;;;2.85;;
70866;SDS011;58487;53.474;49.470;2023-08-06T09:03:08;4.72;;;2.97;;
70866;SDS011;58487;53.474;49.470;2023-08-06T09:05:37;8.38;;;3.95;;
70866;SDS011;58487;53.474;49.470;2023-08-06T09:08:08;9.05;;;3.47;;
70866;SDS011;58487;53.474;49.470;2023-08-06T09:10:39;6.33;;;3.47;;
70866;SDS011;58487;53.474;49.470;2023-08-06T09:13:06;7.63;;;3.50;;
70866;SDS011;58487;53.474;49.470;2023-08-06T09:15:34;6.95;;;3.70;;
70866;SDS011;58487;53.474;49.470;2023-08-06T09:18:00;7.68;;;3.70;;
70866;SDS011;58487;53.474;49.470;2023-08-06T09:20:34;5.00;;;3.22;;
70866;SDS011;58487;53.474;49.470;2023-08-06T09:23:06;5.70;;;3.10;;
70866;SDS011;58487;53.474;49.470;2023-08-06T09:25:33;5.20;;;3.30;;
70866;SDS011;58487;53.474;49.470;2023-08-06T09:28:01;6.10;;;3.53;;
70866;SDS011;58487;53.474;49.470;2023-08-06T09:30:32;7.15;;;3.83;;
70866;SDS011;58487;53.474;49.470;2023-08-06T09:32:59;7.60;;;3.70;;
70866;SDS011;58487;53.474;49.470;2023-08-06T09:35:31;6.50;;;3.20;;
70866;SDS011;58487;53.474;49.470;2023-08-06T09:38:09;4.93;;;3.40;;
70866;SDS011;58487;53.474;49.470;2023-08-06T09:40:37;8.80;;;4.15;;
70866;SDS011;58487;53.474;49.470;2023-08-06T09:43:03;7.88;;;3.72;;
70866;SDS011;58487;53.474;49.470;2023-08-06T09:45:31;10.57;;;3.88;;
70866;SDS011;58487;53.474;49.470;2023-08-06T09:47:59;9.60;;;4.28;;
70866;SDS011;58487;53.474;49.470;2023-08-06T09:50:31;5.83;;;3.70;;
70866;SDS011;58487;53.474;49.470;2023-08-06T09:52:59;7.07;;;4.00;;
70866;SDS011;58487;53.474;49.470;2023-08-06T09:55:26;7.40;;;4.00;;
70866;SDS011;58487;53.474;49.470;2023-08-06T09:57:53;7.05;;;3.72;;
70866;SDS011;58487;53.474;49.470;2023-08-06T10:00:20;8.32;;;4.20;;
70866;SDS011;58487;53.474;49.470;2023-08-06T10:02:46;7.87;;;3.90;;
70866;SDS011;58487;53.474;49.470;2023-08-06T10:05:13;6.47;;;3.90;;
70866;SDS011;58487;53.474;49.470;2023-08-06T10:07:41;7.45;;;4.20;;
70866;SDS011;58487;53.474;49.470;2023-08-06T10:10:09;6.90;;;4.35;;
70866;SDS011;58487;53.474;49.470;2023-08-06T10:12:45;5.80;;;3.72;;
70866;SDS011;58487;53.474;49.470;2023-08-06T10:15:14;7.53;;;4.20;;
70866;SDS011;58487;53.474;49.470;2023-08-06T10:17:43;8.47;;;3.93;;
70866;SDS011;58487;53.474;49.470;2023-08-06T10:20:11;5.90;;;4.17;;
70866;SDS011;58487;53.474;49.470;2023-08-06T10:22:38;10.20;;;4.28;;
70866;SDS011;58487;53.474;49.470;2023-08-06T10:25:09;10.55;;;4.35;;
70866;SDS011;58487;53.474;49.470;2023-08-06T10:27:35;7.50;;;4.03;;
70866;SDS011;58487;53.474;49.470;2023-08-06T10:32:49;6.60;;;4.40;;
70866;SDS011;58487;53.474;49.470;2023-08-06T10:35:41;6.47;;;4.10;;
70866;SDS011;58487;53.474;49.470;2023-08-06T10:38:21;9.77;;;4.55;;
70866;SDS011;58487;53.474;49.470;2023-08-06T10:45:56;6.15;;;4.00;;
70866;SDS011;58487;53.474;49.470;2023-08-06T10:51:07;6.20;;;3.90;;
70866;SDS011;58487;53.474;49.470;2023-08-06T10:53:37;9.43;;;4.00;;
70866;SDS011;58487;53.474;49.470;2023-08-06T10:56:17;8.98;;;4.38;;
70866;SDS011;58487;53.474;49.470;2023-08-06T10:58:44;8.15;;;3.83;;
70866;SDS011;58487;53.474;49.470;2023-08-06T11:01:11;5.45;;;3.80;;
70866;SDS011;58487;53.474;49.470;2023-08-06T11:03:38;5.87;;;3.80;;
70866;SDS011;58487;53.474;49.470;2023-08-06T11:06:06;8.23;;;4.10;;
70866;SDS011;58487;53.474;49.470;2023-08-06T11:08:33;7.18;;;4.22;;
70866;SDS011;58487;53.474;49.470;2023-08-06T11:11:11;10.43;;;4.40;;
70866;SDS011;58487;53.474;49.470;2023-08-06T11:13:45;6.55;;;4.00;;
70866;SDS011;58487;53.474;49.470;2023-08-06T11:16:12;6.38;;;3.78;;
70866;SDS011;58487;53.474;49.470;2023-08-06T11:18:47;7.57;;;3.70;;
70866;SDS011;58487;53.474;49.470;2023-08-06T11:21:13;6.80;;;4.00;;
70866;SDS011;58487;53.474;49.470;2023-08-06T11:23:40;8.13;;;4.30;;
70866;SDS011;58487;53.474;49.470;2023-08-06T11:26:07;8.50;;;4.10;;
70866;SDS011;58487;53.474;49.470;2023-08-06T11:28:33;9.35;;;6.10;;
70866;SDS011;58487;53.474;49.470;2023-08-06T11:30:59;5.90;;;4.13;;
70866;SDS011;58487;53.474;49.470;2023-08-06T11:33:28;5.60;;;3.53;;
70866;SDS011;58487;53.474;49.470;2023-08-06T11:35:56;7.37;;;4.03;;
70866;SDS011;58487;53.474;49.470;2023-08-06T11:38:27;7.03;;;4.00;;
70866;SDS011;58487;53.474;49.470;2023-08-06T11:40:54;6.32;;;3.75;;
70866;SDS011;58487;53.474;49.470;2023-08-06T11:43:20;9.30;;;4.00;;
70866;SDS011;58487;53.474;49.470;2023-08-06T11:45:50;7.25;;;3.47;;
70866;SDS011;58487;53.474;49.470;2023-08-06T11:48:16;6.03;;;3.45;;
70866;SDS011;58487;53.474;49.470;2023-08-06T11:50:43;6.33;;;3.20;;
70866;SDS011;58487;53.474;49.470;2023-08-06T11:53:11;7.23;;;4.40;;
70866;SDS011;58487;53.474;49.470;2023-08-06T11:55:39;6.45;;;3.45;;
70866;SDS011;58487;53.474;49.470;2023-08-06T11:58:05;6.93;;;3.70;;
70866;SDS011;58487;53.474;49.470;2023-08-06T12:00:32;6.60;;;3.70;;
70866;SDS011;58487;53.474;49.470;2023-08-06T12:02:58;5.53;;;3.60;;
70866;SDS011;58487;53.474;49.470;2023-08-06T12:05:33;7.47;;;3.60;;
70866;SDS011;58487;53.474;49.470;2023-08-06T12:08:00;6.33;;;3.40;;
70866;SDS011;58487;53.474;49.470;2023-08-06T12:10:28;6.25;;;3.10;;
70866;SDS011;58487;53.474;49.470;2023-08-06T12:12:57;6.47;;;3.40;;
70866;SDS011;58487;53.474;49.470;2023-08-06T12:15:23;6.00;;;3.00;;
70866;SDS011;58487;53.474;49.470;2023-08-06T12:17:49;4.97;;;2.90;;
70866;SDS011;58487;53.474;49.470;2023-08-06T12:20:15;8.93;;;2.97;;
70866;SDS011;58487;53.474;49.470;2023-08-06T12:22:41;5.55;;;2.90;;
70866;SDS011;58487;53.474;49.470;2023-08-06T12:25:10;6.40;;;3.33;;
70866;SDS011;58487;53.474;49.470;2023-08-06T12:27:38;7.93;;;3.45;;
70866;SDS011;58487;53.474;49.470;2023-08-06T12:30:18;7.57;;;4.18;;
70866;SDS011;58487;53.474;49.470;2023-08-06T12:32:47;7.20;;;3.30;;
70866;SDS011;58487;53.474;49.470;2023-08-06T12:35:13;7.15;;;3.30;;
70866;SDS011;58487;53.474;49.470;2023-08-06T12:37:39;7.93;;;3.55;;
70866;SDS011;58487;53.474;49.470;2023-08-06T12:40:05;7.05;;;3.60;;
70866;SDS011;58487;53.474;49.470;2023-08-06T12:42:32;8.17;;;3.67;;
70866;SDS011;58487;53.474;49.470;2023-08-06T12:44:59;6.38;;;3.42;;
70866;SDS011;58487;53.474;49.470;2023-08-06T12:47:25;6.07;;;3.03;;
70866;SDS011;58487;53.474;49.470;2023-08-06T12:49:51;5.07;;;3.10;;
70866;SDS011;58487;53.474;49.470;2023-08-06T12:52:17;10.07;;;6.60;;
70866;SDS011;58487;53.474;49.470;2023-08-06T12:54:45;8.70;;;4.63;;
70866;SDS011;58487;53.474;49.470;2023-08-06T12:57:11;7.28;;;4.15;;
70866;SDS011;58487;53.474;49.470;2023-08-06T12:59:37;8.95;;;4.50;;
70866;SDS011;58487;53.474;49.470;2023-08-06T13:02:05;9.40;;;4.88;;
70866;SDS011;58487;53.474;49.470;2023-08-06T13:04:31;8.95;;;4.30;;
70866;SDS011;58487;53.474;49.470;2023-08-06T13:06:58;8.63;;;4.00;;
70866;SDS011;58487;53.474;49.470;2023-08-06T13:09:24;5.40;;;3.40;;
70866;SDS011;58487;53.474;49.470;2023-08-06T13:11:51;6.85;;;3.60;;
70866;SDS011;58487;53.474;49.470;2023-08-06T13:14:17;6.15;;;3.42;;
70866;SDS011;58487;53.474;49.470;2023-08-06T13:16:43;9.60;;;3.00;;
70866;SDS011;58487;53.474;49.470;2023-08-06T13:19:10;8.02;;;3.30;;
70866;SDS011;58487;53.474;49.470;2023-08-06T13:24:07;8.48;;;4.75;;
70866;SDS011;58487;53.474;49.470;2023-08-06T13:26:35;8.02;;;4.45;;
70866;SDS011;58487;53.474;49.470;2023-08-06T13:29:01;7.28;;;3.70;;
70866;SDS011;58487;53.474;49.470;2023-08-06T13:31:28;7.55;;;3.53;;
70866;SDS011;58487;53.474;49.470;2023-08-06T13:33:55;7.63;;;3.30;;
70866;SDS011;58487;53.474;49.470;2023-08-06T13:36:23;6.07;;;3.30;;
70866;SDS011;58487;53.474;49.470;2023-08-06T13:38:50;4.97;;;3.30;;
70866;SDS011;58487;53.474;49.470;2023-08-06T13:41:16;5.40;;;3.00;;
70866;SDS011;58487;53.474;49.470;2023-08-06T13:43:42;8.02;;;3.70;;
70866;SDS011;58487;53.474;49.470;2023-08-06T13:46:10;7.90;;;3.38;;
70866;SDS011;58487;53.474;49.470;2023-08-06T13:48:42;6.68;;;3.17;;
70866;SDS011;58487;53.474;49.470;2023-08-06T13:51:09;5.43;;;3.00;;
70866;SDS011;58487;53.474;49.470;2023-08-06T13:53:40;4.83;;;3.07;;
70866;SDS011;58487;53.474;49.470;2023-08-06T13:56:07;5.03;;;3.40;;
70866;SDS011;58487;53.474;49.470;2023-08-06T13:58:35;7.38;;;3.47;;
70866;SDS011;58487;53.474;49.470;2023-08-06T14:01:01;6.57;;;3.30;;
70866;SDS011;58487;53.474;49.470;2023-08-06T14:03:27;6.90;;;3.70;;
70866;SDS011;58487;53.474;49.470;2023-08-06T14:05:54;7.25;;;3.50;;
70866;SDS011;58487;53.474;49.470;2023-08-06T14:08:23;4.40;;;3.05;;
70866;SDS011;58487;53.474;49.470;2023-08-06T14:10:50;7.03;;;3.30;;
70866;SDS011;58487;53.474;49.470;2023-08-06T14:13:17;6.07;;;3.20;;
70866;SDS011;58487;53.474;49.470;2023-08-06T14:15:43;6.35;;;3.30;;
70866;SDS011;58487;53.474;49.470;2023-08-06T14:18:15;6.68;;;3.33;;
70866;SDS011;58487;53.474;49.470;2023-08-06T14:20:42;7.45;;;3.40;;
70866;SDS011;58487;53.474;49.470;2023-08-06T14:23:10;6.07;;;3.40;;
70866;SDS011;58487;53.474;49.470;2023-08-06T14:25:37;6.80;;;3.70;;
70866;SDS011;58487;53.474;49.470;2023-08-06T14:28:04;6.72;;;3.10;;
70866;SDS011;58487;53.474;49.470;2023-08-06T14:30:32;5.05;;;3.28;;
70866;SDS011;58487;53.474;49.470;2023-08-06T14:32:59;9.25;;;3.10;;
70866;SDS011;58487;53.474;49.470;2023-08-06T14:35:26;8.65;;;3.30;;
70866;SDS011;58487;53.474;49.470;2023-08-06T14:37:52;5.53;;;3.33;;
70866;SDS011;58487;53.474;49.470;2023-08-06T14:40:18;7.07;;;3.67;;
70866;SDS011;58487;53.474;49.470;2023-08-06T14:42:44;5.95;;;3.60;;
70866;SDS011;58487;53.474;49.470;2023-08-06T14:45:10;6.15;;;3.20;;
70866;SDS011;58487;53.474;49.470;2023-08-06T14:47:36;7.55;;;3.13;;